Time;durP1;ratioP1;P1;durP2;ratioP2;P2;SDS_P1;SDS_P2;PMS_P1;PMS_P2;Temp;Humidity;BMP_temperature;BMP_pressure;BME280_temperature;BME280_humidity;BME280_pressure;Samples;Min_cycle;Max_cycle;Signal;HPM_P1;HPM_P2
2021/11/14 00:00:45;;;;;;;4.88;4.47;;;19.40;66.10;;;;;;5036264;28;20037;-28
2021/11/14 00:03:11;;;;;;;4.20;3.90;;;19.40;65.80;;;;;;5036794;28;20079;-25
2021/11/14 00:05:37;;;;;;;4.30;3.90;;;19.40;65.90;;;;;;5035777;28;20037;-32
2021/11/14 00:08:03;;;;;;;4.28;3.88;;;19.40;65.80;;;;;;5034727;28;20109;-33
2021/11/14 00:10:30;;;;;;;4.38;4.05;;;19.30;66.00;;;;;;5036392;28;20037;-32
2021/11/14 00:12:55;;;;;;;4.60;4.13;;;19.30;66.10;;;;;;5036060;28;20506;-26
2021/11/14 00:15:21;;;;;;;5.80;3.88;;;19.20;66.20;;;;;;5036653;28;20025;-31
2021/11/14 00:17:47;;;;;;;3.97;3.67;;;19.20;66.50;;;;;;5034085;28;20041;-32
2021/11/14 00:20:14;;;;;;;3.80;3.53;;;19.20;66.30;;;;;;5036260;28;20518;-28
2021/11/14 00:22:40;;;;;;;4.03;3.63;;;19.30;66.20;;;;;;5035999;28;20030;-28
2021/11/14 00:25:06;;;;;;;3.78;3.47;;;19.20;66.10;;;;;;5036245;28;20049;-30
2021/11/14 00:27:32;;;;;;;4.10;3.70;;;19.20;66.30;;;;;;5036217;28;20068;-25
2021/11/14 00:29:57;;;;;;;3.92;3.63;;;19.20;66.20;;;;;;5036102;28;20025;-27
2021/11/14 00:32:23;;;;;;;3.53;3.20;;;19.10;66.60;;;;;;5021118;28;20033;-31
2021/11/14 00:34:50;;;;;;;4.32;3.70;;;19.20;66.60;;;;;;5016529;28;20032;-29
2021/11/14 00:37:16;;;;;;;3.92;3.53;;;19.30;66.00;;;;;;5028175;28;20037;-30
2021/11/14 00:39:42;;;;;;;3.25;3.05;;;19.20;66.10;;;;;;5036058;28;20030;-30
2021/11/14 00:42:08;;;;;;;3.97;3.60;;;19.10;66.50;;;;;;5035956;28;20041;-28
2021/11/14 00:44:33;;;;;;;3.78;3.30;;;19.20;66.50;;;;;;5036022;28;20086;-31
2021/11/14 00:46:59;;;;;;;3.10;2.90;;;19.10;66.40;;;;;;5036017;28;20030;-30
2021/11/14 00:49:24;;;;;;;3.58;3.30;;;19.00;66.60;;;;;;5051280;28;20525;-29
2021/11/14 00:51:50;;;;;;;3.17;2.97;;;19.00;66.60;;;;;;5035198;28;20034;-28
2021/11/14 00:54:16;;;;;;;3.40;3.20;;;19.10;66.60;;;;;;5035633;28;20025;-27
2021/11/14 00:56:41;;;;;;;3.45;2.97;;;19.00;66.70;;;;;;5035808;28;20030;-31
2021/11/14 00:59:07;;;;;;;3.42;3.22;;;19.10;66.30;;;;;;5036419;28;20030;-27
2021/11/14 01:01:33;;;;;;;2.95;2.75;;;19.00;66.40;;;;;;5035562;28;20029;-30
2021/11/14 01:04:00;;;;;;;3.10;2.90;;;19.10;66.40;;;;;;5024981;28;20046;-25
2021/11/14 01:06:26;;;;;;;2.72;2.53;;;19.10;66.50;;;;;;5035722;28;20112;-25
2021/11/14 01:08:51;;;;;;;3.10;2.90;;;19.00;66.50;;;;;;5035725;28;20041;-25
2021/11/14 01:11:17;;;;;;;3.13;2.83;;;19.00;66.40;;;;;;5035672;28;20026;-31
2021/11/14 01:13:42;;;;;;;2.88;2.67;;;19.10;66.50;;;;;;5034978;28;20104;-30
2021/11/14 01:16:10;;;;;;;2.83;2.63;;;19.00;66.30;;;;;;5035293;28;20110;-24
2021/11/14 01:18:35;;;;;;;2.92;2.72;;;19.00;66.40;;;;;;5035939;28;20390;-29
2021/11/14 01:21:03;;;;;;;3.10;2.50;;;19.10;66.50;;;;;;5035690;28;20112;-29
2021/11/14 01:23:29;;;;;;;2.97;2.78;;;19.10;66.30;;;;;;5038244;28;20026;-35
2021/11/14 01:25:54;;;;;;;2.80;2.60;;;19.00;66.30;;;;;;5039326;28;20026;-29
2021/11/14 01:28:21;;;;;;;2.70;2.20;;;19.00;66.30;;;;;;5039003;28;20040;-29
2021/11/14 01:30:48;;;;;;;2.15;2.05;;;19.10;66.40;;;;;;5039221;28;20032;-33
2021/11/14 01:33:15;;;;;;;2.58;2.38;;;19.10;66.10;;;;;;5038889;28;20064;-26
2021/11/14 01:35:41;;;;;;;2.40;2.20;;;19.10;66.10;;;;;;5038565;28;20453;-33
2021/11/14 01:38:07;;;;;;;2.70;2.50;;;19.10;66.00;;;;;;5039275;28;20021;-28
2021/11/14 01:40:38;;;;;;;2.08;1.88;;;19.10;66.00;;;;;;5039570;28;20033;-29
2021/11/14 01:43:05;;;;;;;2.53;2.33;;;19.10;65.90;;;;;;5039136;28;20025;-28
2021/11/14 01:45:31;;;;;;;3.40;2.10;;;19.10;66.00;;;;;;5038533;28;20065;-35
2021/11/14 01:47:57;;;;;;;2.45;2.25;;;19.10;65.90;;;;;;5032898;28;20025;-25
2021/11/14 01:50:23;;;;;;;2.30;2.10;;;19.20;65.80;;;;;;5019337;28;20029;-29
2021/11/14 01:52:49;;;;;;;2.38;2.17;;;19.20;66.00;;;;;;5035819;28;20025;-28
2021/11/14 01:55:17;;;;;;;2.35;2.22;;;19.10;65.70;;;;;;5038502;28;20030;-32
2021/11/14 01:57:43;;;;;;;2.20;2.10;;;19.20;65.60;;;;;;5039180;28;20026;-24
2021/11/14 02:00:11;;;;;;;1.83;1.73;;;19.20;65.60;;;;;;5038992;28;20109;-29
2021/11/14 02:02:37;;;;;;;2.30;2.10;;;19.20;65.60;;;;;;5019981;28;20055;-30
2021/11/14 02:05:05;;;;;;;1.90;1.80;;;19.20;65.60;;;;;;5028413;28;20057;-29
2021/11/14 02:07:32;;;;;;;2.15;2.05;;;19.20;65.50;;;;;;5038085;28;20025;-27
2021/11/14 02:09:58;;;;;;;2.13;2.03;;;19.20;65.40;;;;;;5038910;28;20451;-24
2021/11/14 02:12:23;;;;;;;2.20;2.10;;;19.20;65.30;;;;;;5038855;28;20065;-25
2021/11/14 02:14:49;;;;;;;2.00;1.90;;;19.10;65.40;;;;;;5038726;28;20029;-33
2021/11/14 02:17:14;;;;;;;2.00;1.90;;;19.10;65.40;;;;;;5037711;28;20040;-33
2021/11/14 02:19:40;;;;;;;1.73;1.63;;;19.20;65.30;;;;;;5038540;28;20505;-30
2021/11/14 02:22:06;;;;;;;2.00;1.90;;;19.20;65.40;;;;;;5038773;28;20061;-30
2021/11/14 02:24:31;;;;;;;1.77;1.67;;;19.20;65.30;;;;;;5038265;28;20151;-27
2021/11/14 02:26:57;;;;;;;1.90;1.80;;;19.10;65.30;;;;;;5038527;28;20041;-28
2021/11/14 02:29:22;;;;;;;1.45;1.35;;;19.20;65.30;;;;;;5038449;28;20021;-30
2021/11/14 02:31:48;;;;;;;1.90;1.80;;;19.20;65.40;;;;;;5021426;28;20517;-28
2021/11/14 02:34:14;;;;;;;1.75;1.65;;;19.20;65.30;;;;;;5029667;28;20026;-31
2021/11/14 02:36:39;;;;;;;2.38;1.90;;;19.20;65.20;;;;;;5038040;28;20481;-29
2021/11/14 02:39:05;;;;;;;1.60;1.50;;;19.20;65.30;;;;;;5035221;28;20494;-31
2021/11/14 02:41:31;;;;;;;1.83;1.58;;;19.10;65.30;;;;;;5018151;28;20030;-29
2021/11/14 02:43:57;;;;;;;1.85;1.75;;;19.20;65.30;;;;;;5018204;28;20025;-24
2021/11/14 02:46:23;;;;;;;1.45;1.35;;;19.20;65.30;;;;;;5037591;28;20076;-33
2021/11/14 02:48:49;;;;;;;1.95;1.77;;;19.10;65.30;;;;;;5025411;28;20038;-32
2021/11/14 02:51:21;;;;;;;1.55;1.45;;;19.10;65.30;;;;;;5018161;28;20029;-33
2021/11/14 02:53:46;;;;;;;1.50;1.40;;;19.10;65.30;;;;;;5018158;28;20026;-24
2021/11/14 02:56:13;;;;;;;1.80;1.70;;;19.10;65.40;;;;;;5017860;28;20375;-29
2021/11/14 02:58:39;;;;;;;1.65;1.55;;;19.10;65.30;;;;;;5018358;28;20157;-24
2021/11/14 03:01:08;;;;;;;1.63;1.52;;;19.10;65.30;;;;;;5017967;28;20065;-24
2021/11/14 03:03:34;;;;;;;1.50;1.40;;;19.10;65.40;;;;;;5029535;28;20029;-24
2021/11/14 03:06:00;;;;;;;1.67;1.58;;;19.10;65.30;;;;;;5035750;28;20437;-29
2021/11/14 03:08:26;;;;;;;1.40;1.30;;;19.10;65.40;;;;;;5037093;28;20032;-28
2021/11/14 03:10:51;;;;;;;1.42;1.33;;;19.10;65.30;;;;;;5037588;28;20022;-24
2021/11/14 03:13:19;;;;;;;1.48;1.38;;;19.10;65.30;;;;;;5019390;28;20017;-27
2021/11/14 03:15:47;;;;;;;1.40;1.30;;;19.10;65.30;;;;;;5032771;28;20555;-28
2021/11/14 03:18:13;;;;;;;1.55;1.45;;;19.10;65.20;;;;;;5037494;28;20021;-31
2021/11/14 03:20:40;;;;;;;1.30;1.20;;;19.10;65.20;;;;;;5036997;28;20600;-30
2021/11/14 03:23:06;;;;;;;1.42;1.33;;;19.10;65.20;;;;;;5037237;28;20024;-31
2021/11/14 03:25:32;;;;;;;1.58;1.48;;;19.10;65.20;;;;;;5037083;28;20480;-28
2021/11/14 03:27:57;;;;;;;1.02;0.93;;;19.10;65.20;;;;;;5037300;28;20013;-30
2021/11/14 03:30:23;;;;;;;1.40;1.30;;;19.10;65.30;;;;;;5033312;28;20387;-32
2021/11/14 03:32:49;;;;;;;1.35;1.25;;;19.00;65.10;;;;;;5037157;28;20033;-26
2021/11/14 03:35:15;;;;;;;1.23;1.13;;;19.10;65.30;;;;;;5036006;28;20040;-25
2021/11/14 03:37:40;;;;;;;1.08;1.08;;;19.00;65.20;;;;;;5036469;28;20024;-33
2021/11/14 03:40:07;;;;;;;1.35;1.25;;;19.10;65.30;;;;;;5037230;28;20083;-29
2021/11/14 03:42:33;;;;;;;1.13;1.10;;;19.10;65.20;;;;;;5036919;28;20017;-31
2021/11/14 03:44:58;;;;;;;1.38;1.27;;;19.00;65.20;;;;;;5036703;28;20059;-30
2021/11/14 03:47:24;;;;;;;1.58;1.38;;;19.00;65.30;;;;;;5033634;28;20057;-25
2021/11/14 03:49:49;;;;;;;1.10;1.08;;;19.00;65.30;;;;;;5035836;28;20025;-32
2021/11/14 03:52:15;;;;;;;1.17;1.08;;;19.00;65.10;;;;;;5036624;28;20463;-32
2021/11/14 03:54:41;;;;;;;1.10;1.00;;;19.00;65.20;;;;;;5036995;28;20367;-30
2021/11/14 03:57:07;;;;;;;0.90;0.85;;;19.00;65.20;;;;;;5036312;28;20053;-30
2021/11/14 03:59:33;;;;;;;1.25;1.15;;;19.00;65.10;;;;;;5036303;28;20025;-27
2021/11/14 04:01:58;;;;;;;1.33;1.27;;;19.00;65.10;;;;;;5036243;28;20033;-26
2021/11/14 04:04:24;;;;;;;1.08;1.08;;;19.00;65.10;;;;;;5035224;28;20101;-31
2021/11/14 04:06:50;;;;;;;0.90;0.90;;;19.00;65.10;;;;;;5035431;28;20123;-24
2021/11/14 04:09:15;;;;;;;0.90;0.90;;;19.00;65.20;;;;;;5036270;28;20028;-27
2021/11/14 04:11:41;;;;;;;1.10;1.00;;;19.00;65.10;;;;;;5036536;28;20017;-27
2021/11/14 04:14:06;;;;;;;1.05;1.05;;;19.00;65.10;;;;;;5023673;28;20589;-31
2021/11/14 04:16:32;;;;;;;1.13;1.10;;;19.00;65.10;;;;;;5016413;28;20037;-32
2021/11/14 04:18:57;;;;;;;0.90;0.90;;;19.00;65.10;;;;;;5026141;28;20032;-29
2021/11/14 04:21:23;;;;;;;0.90;0.90;;;19.00;65.10;;;;;;5035256;28;20034;-27
2021/11/14 04:23:49;;;;;;;0.95;0.95;;;19.00;65.20;;;;;;5036221;28;20605;-27
2021/11/14 04:26:14;;;;;;;0.90;0.90;;;19.00;65.20;;;;;;5035849;28;20049;-23
2021/11/14 04:28:40;;;;;;;0.80;0.80;;;19.00;65.20;;;;;;5036409;28;20143;-30
2021/11/14 04:31:06;;;;;;;0.93;0.93;;;19.00;65.10;;;;;;5036307;28;20033;-29
2021/11/14 04:33:31;;;;;;;1.00;1.00;;;19.00;65.20;;;;;;5035424;28;20021;-32
2021/11/14 04:35:57;;;;;;;0.77;0.77;;;19.00;65.20;;;;;;5033827;28;20144;-31
2021/11/14 04:38:23;;;;;;;1.00;1.00;;;19.00;65.30;;;;;;5054801;28;20040;-26
2021/11/14 04:40:50;;;;;;;0.85;0.85;;;19.00;65.30;;;;;;5051941;28;20057;-23
2021/11/14 04:43:17;;;;;;;0.93;0.93;;;19.00;65.30;;;;;;5045365;28;20087;-31
2021/11/14 04:45:43;;;;;;;1.20;1.10;;;19.00;65.30;;;;;;5034973;28;20061;-27
2021/11/14 04:48:08;;;;;;;1.08;0.98;;;19.00;65.30;;;;;;5050689;28;20033;-29
2021/11/14 04:50:34;;;;;;;1.00;1.00;;;19.00;65.40;;;;;;5041531;28;20101;-26
2021/11/14 04:53:00;;;;;;;1.08;0.98;;;19.00;65.30;;;;;;5051968;28;20036;-32
2021/11/14 04:55:26;;;;;;;1.17;1.17;;;19.00;65.60;;;;;;5043522;28;20033;-26
2021/11/14 04:57:51;;;;;;;1.17;1.10;;;19.00;65.40;;;;;;5046918;28;20021;-27
2021/11/14 05:00:21;;;;;;;1.08;1.08;;;19.00;65.50;;;;;;5035691;28;20030;-28
2021/11/14 05:02:47;;;;;;;1.27;1.20;;;19.00;65.50;;;;;;5050521;28;20025;-30
2021/11/14 05:05:13;;;;;;;1.05;0.95;;;19.00;65.50;;;;;;5047086;28;20032;-26
2021/11/14 05:07:38;;;;;;;1.33;1.33;;;19.00;65.50;;;;;;5053997;28;20016;-28
2021/11/14 05:10:04;;;;;;;1.38;1.27;;;19.00;65.60;;;;;;5045242;28;20036;-28
2021/11/14 05:12:30;;;;;;;2.58;1.60;;;18.90;65.60;;;;;;5033771;28;20112;-25
2021/11/14 05:14:55;;;;;;;1.45;1.35;;;18.90;65.60;;;;;;5050787;28;20056;-28
2021/11/14 05:17:21;;;;;;;1.08;1.08;;;18.90;65.60;;;;;;5043053;28;20509;-30
2021/11/14 05:19:47;;;;;;;1.42;1.33;;;19.00;65.60;;;;;;5034688;28;20040;-28
2021/11/14 05:22:12;;;;;;;1.25;1.25;;;19.00;65.50;;;;;;5029747;28;20127;-31
2021/11/14 05:24:38;;;;;;;1.13;1.13;;;18.90;65.50;;;;;;5027995;28;21416;-30
2021/11/14 05:27:04;;;;;;;1.55;1.45;;;19.00;65.60;;;;;;5034975;28;20109;-33
2021/11/14 05:29:29;;;;;;;1.10;1.10;;;19.00;65.50;;;;;;5032390;28;20040;-29
2021/11/14 05:31:55;;;;;;;1.15;1.15;;;18.90;65.50;;;;;;5034122;28;20026;-26
2021/11/14 05:34:21;;;;;;;1.30;1.20;;;18.90;65.60;;;;;;5030169;28;20037;-26
2021/11/14 05:36:46;;;;;;;1.00;1.00;;;19.00;65.60;;;;;;5033189;28;20437;-32
2021/11/14 05:39:12;;;;;;;1.17;1.17;;;18.90;65.50;;;;;;5034265;28;20083;-28
2021/11/14 05:41:37;;;;;;;1.35;1.30;;;18.90;65.50;;;;;;5033913;28;20017;-29
2021/11/14 05:44:03;;;;;;;1.38;1.27;;;18.90;65.60;;;;;;5033380;28;20406;-33
2021/11/14 05:46:29;;;;;;;1.08;1.05;;;18.90;65.60;;;;;;5033813;28;20026;-32
2021/11/14 05:48:54;;;;;;;1.23;1.15;;;18.90;65.50;;;;;;5034631;28;20033;-33
2021/11/14 05:51:20;;;;;;;0.85;0.85;;;19.00;65.50;;;;;;5035495;28;20404;-30
2021/11/14 05:53:46;;;;;;;1.42;1.33;;;18.90;65.50;;;;;;5034489;28;20030;-30
2021/11/14 05:56:11;;;;;;;0.95;0.95;;;18.90;65.50;;;;;;5035385;28;20109;-32
2021/11/14 06:04:23;;;;;;;0.77;0.77;;;18.90;65.40;;;;;;5012986;28;20089;-29
2021/11/14 06:06:49;;;;;;;0.73;0.73;;;18.90;65.40;;;;;;5019850;28;20045;-25
2021/11/14 06:09:15;;;;;;;1.00;1.00;;;18.90;65.50;;;;;;5025430;28;20029;-27
2021/11/14 06:11:40;;;;;;;0.73;0.73;;;18.90;65.50;;;;;;5037212;28;20367;-26
2021/11/14 06:14:06;;;;;;;0.60;0.60;;;18.90;65.50;;;;;;5054169;28;20051;-32
2021/11/14 06:16:32;;;;;;;0.77;0.77;;;18.90;65.40;;;;;;5038615;28;20013;-30
2021/11/14 06:18:57;;;;;;;0.60;0.60;;;18.90;65.40;;;;;;5038714;28;20528;-29
2021/11/14 06:21:23;;;;;;;0.88;0.88;;;18.90;65.60;;;;;;5038475;28;20028;-30
2021/11/14 06:23:52;;;;;;;0.98;0.98;;;18.90;65.40;;;;;;5030977;28;20567;-30
2021/11/14 06:26:18;;;;;;;0.75;0.75;;;18.90;65.50;;;;;;5018720;28;20026;-29
2021/11/14 06:28:43;;;;;;;1.30;0.85;;;18.90;65.50;;;;;;5018757;28;20028;-26
2021/11/14 06:31:09;;;;;;;0.93;0.93;;;18.90;65.50;;;;;;5018646;28;20026;-31
2021/11/14 06:33:35;;;;;;;0.80;0.80;;;18.90;65.50;;;;;;5018831;28;20095;-25
2021/11/14 06:36:00;;;;;;;0.60;0.60;;;18.90;65.50;;;;;;5019918;28;20116;-29
2021/11/14 06:38:26;;;;;;;0.70;0.70;;;18.90;65.50;;;;;;5034256;28;20036;-27
2021/11/14 06:40:52;;;;;;;0.82;0.82;;;18.90;65.40;;;;;;5018653;28;20116;-26
2021/11/14 06:43:17;;;;;;;1.00;0.90;;;18.90;65.50;;;;;;5018411;28;20479;-33
2021/11/14 06:45:43;;;;;;;0.60;0.60;;;18.90;65.40;;;;;;5028786;28;20042;-30
2021/11/14 06:48:08;;;;;;;0.50;0.50;;;18.90;65.50;;;;;;5034877;28;20033;-32
2021/11/14 06:50:34;;;;;;;0.55;0.55;;;18.80;65.40;;;;;;5037292;28;20021;-27
2021/11/14 06:53:00;;;;;;;0.70;0.70;;;18.90;65.40;;;;;;5034773;28;20076;-31
2021/11/14 06:55:25;;;;;;;0.70;0.70;;;18.90;65.40;;;;;;5036500;28;20088;-28
2021/11/14 06:57:51;;;;;;;0.70;0.70;;;18.90;65.40;;;;;;5035285;28;20110;-29
2021/11/14 07:00:18;;;;;;;0.50;0.50;;;18.90;65.50;;;;;;5037347;28;20093;-33
2021/11/14 07:02:44;;;;;;;0.50;0.50;;;18.90;65.40;;;;;;5030805;28;20445;-26
2021/11/14 07:05:10;;;;;;;0.55;0.55;;;18.90;66.20;;;;;;5018034;28;20026;-29
2021/11/14 07:07:35;;;;;;;0.55;0.55;;;18.80;65.40;;;;;;5032103;28;20032;-24
2021/11/14 07:10:02;;;;;;;0.60;0.60;;;18.80;65.40;;;;;;5036805;28;20040;-26
2021/11/14 07:12:28;;;;;;;0.50;0.50;;;18.80;65.40;;;;;;5029395;28;20080;-32
2021/11/14 07:14:54;;;;;;;0.60;0.60;;;18.80;65.40;;;;;;5033542;28;20026;-24
2021/11/14 07:17:22;;;;;;;0.47;0.47;;;18.80;65.30;;;;;;5037482;28;20029;-24
2021/11/14 07:19:48;;;;;;;0.52;0.52;;;18.90;65.40;;;;;;5035703;28;20048;-26
2021/11/14 07:22:13;;;;;;;0.52;0.52;;;18.80;65.80;;;;;;5035339;28;20417;-27
2021/11/14 07:24:39;;;;;;;0.50;0.50;;;18.80;66.30;;;;;;5035426;28;20057;-29
2021/11/14 07:27:05;;;;;;;0.52;0.52;;;18.80;65.50;;;;;;5035268;28;20045;-32
2021/11/14 07:29:30;;;;;;;1.03;0.50;;;18.80;65.70;;;;;;4663531;28;9999710;-30
2021/11/14 07:31:56;;;;;;;0.57;0.57;;;18.80;65.70;;;;;;5019798;28;20106;-34
2021/11/14 07:34:21;;;;;;;0.50;0.50;;;18.80;65.70;;;;;;5033323;28;20050;-33
2021/11/14 07:36:47;;;;;;;0.30;0.30;;;18.80;65.70;;;;;;5007300;28;20034;-29
2021/11/14 07:39:13;;;;;;;0.73;0.50;;;18.80;65.60;;;;;;5006443;28;20057;-29
2021/11/14 07:41:38;;;;;;;0.60;0.60;;;18.80;65.70;;;;;;5011521;28;20038;-31
2021/11/14 07:44:04;;;;;;;0.43;0.43;;;18.80;65.80;;;;;;5031149;28;20045;-29
2021/11/14 07:46:30;;;;;;;0.52;0.50;;;18.80;65.90;;;;;;5020312;28;20133;-29
2021/11/14 07:48:55;;;;;;;0.40;0.40;;;18.80;65.90;;;;;;5040769;28;20049;-32
2021/11/14 07:51:21;;;;;;;0.50;0.50;;;18.80;65.90;;;;;;5019720;28;20046;-31
2021/11/14 07:53:47;;;;;;;0.43;0.40;;;18.80;66.00;;;;;;5030932;28;20132;-27
2021/11/14 07:56:12;;;;;;;0.88;0.50;;;18.80;66.20;;;;;;5023353;28;20045;-28
2021/11/14 07:58:38;;;;;;;0.50;0.50;;;18.80;66.30;;;;;;5039059;28;20049;-32
2021/11/14 08:01:04;;;;;;;0.60;0.52;;;18.80;66.30;;;;;;5042503;28;20049;-26
2021/11/14 08:03:32;;;;;;;0.73;0.68;;;18.70;67.10;;;;;;5030861;28;20441;-24
2021/11/14 08:06:01;;;;;;;0.50;0.50;;;18.80;66.40;;;;;;5034441;28;20609;-28
2021/11/14 08:08:26;;;;;;;0.50;0.50;;;18.80;66.30;;;;;;5034684;28;20383;-26
2021/11/14 08:10:52;;;;;;;2.05;0.50;;;18.80;66.30;;;;;;5039688;28;20040;-33
2021/11/14 08:13:17;;;;;;;0.40;0.40;;;18.80;66.30;;;;;;5035672;28;20581;-29
2021/11/14 08:15:43;;;;;;;4.95;0.73;;;18.80;66.30;;;;;;5020326;28;20044;-27
2021/11/14 08:18:09;;;;;;;0.40;0.40;;;18.80;66.50;;;;;;5030908;28;20079;-29
2021/11/14 08:20:35;;;;;;;0.38;0.38;;;18.80;66.60;;;;;;5048928;28;20098;-26
2021/11/14 08:23:05;;;;;;;0.55;0.55;;;18.80;66.60;;;;;;5049774;28;20052;-34
2021/11/14 08:25:31;;;;;;;0.40;0.40;;;18.80;66.50;;;;;;5044093;28;20160;-29
2021/11/14 08:27:56;;;;;;;0.65;0.60;;;18.80;66.60;;;;;;5024845;28;20152;-30
2021/11/14 08:30:22;;;;;;;0.73;0.40;;;18.80;66.60;;;;;;5027975;28;20045;-28
2021/11/14 08:32:48;;;;;;;0.77;0.40;;;18.80;66.40;;;;;;5032382;28;20038;-33
2021/11/14 08:35:14;;;;;;;0.55;0.50;;;18.80;66.50;;;;;;5017977;28;20045;-33
2021/11/14 08:37:40;;;;;;;0.40;0.40;;;18.80;66.60;;;;;;5029065;28;20041;-30
2021/11/14 08:40:06;;;;;;;0.68;0.60;;;18.80;66.50;;;;;;5032531;28;20051;-27
2021/11/14 08:42:32;;;;;;;0.40;0.40;;;18.70;66.30;;;;;;5024398;28;20042;-31
2021/11/14 08:44:57;;;;;;;0.60;0.60;;;18.80;66.80;;;;;;5003725;28;20545;-29
2021/11/14 08:47:23;;;;;;;0.90;0.70;;;18.80;67.10;;;;;;5016800;28;20048;-29
2021/11/14 08:49:48;;;;;;;1.25;0.70;;;18.90;67.40;;;;;;5012451;28;20141;-29
2021/11/14 08:52:14;;;;;;;0.40;0.30;;;18.90;67.40;;;;;;5007384;28;20026;-29
2021/11/14 08:54:40;;;;;;;0.30;0.30;;;18.90;67.40;;;;;;5013000;28;20144;-30
2021/11/14 08:57:06;;;;;;;0.40;0.40;;;18.90;67.40;;;;;;5017585;28;20057;-28
2021/11/14 08:59:32;;;;;;;0.50;0.30;;;18.90;67.50;;;;;;5015229;28;20049;-31
2021/11/14 09:01:58;;;;;;;0.55;0.52;;;18.90;67.30;;;;;;5019073;28;20429;-29
2021/11/14 09:04:24;;;;;;;0.38;0.38;;;18.90;67.30;;;;;;5023017;28;20562;-30
2021/11/14 09:06:50;;;;;;;0.32;0.32;;;18.90;66.70;;;;;;5027762;28;20053;-34
2021/11/14 09:09:15;;;;;;;0.77;0.40;;;18.80;67.50;;;;;;5013958;28;20267;-31
2021/11/14 09:11:42;;;;;;;0.40;0.40;;;18.90;67.40;;;;;;5013343;28;20046;-24
2021/11/14 09:14:08;;;;;;;0.38;0.38;;;18.90;68.00;;;;;;5036310;28;20055;-26
2021/11/14 09:16:34;;;;;;;0.38;0.30;;;18.90;67.10;;;;;;5017857;28;20581;-30
2021/11/14 09:18:59;;;;;;;0.30;0.30;;;19.00;67.80;;;;;;5039282;28;20041;-38
2021/11/14 09:21:25;;;;;;;0.45;0.45;;;19.00;67.40;;;;;;5023984;28;20096;-35
2021/11/14 09:23:51;;;;;;;0.60;0.60;;;19.00;67.60;;;;;;4996889;28;20717;-27
2021/11/14 09:26:17;;;;;;;0.70;0.70;;;19.00;67.40;;;;;;5013409;28;20445;-34
2021/11/14 09:28:43;;;;;;;0.40;0.40;;;19.10;67.90;;;;;;5017511;28;20081;-31
2021/11/14 09:31:10;;;;;;;0.40;0.40;;;19.10;67.40;;;;;;4655016;28;10000082;-24
2021/11/14 09:33:35;;;;;;;0.50;0.50;;;19.10;67.40;;;;;;5014263;28;20054;-34
2021/11/14 09:36:01;;;;;;;1.08;0.35;;;19.10;67.00;;;;;;5015013;28;20053;-26
2021/11/14 09:38:27;;;;;;;0.77;0.70;;;19.10;66.90;;;;;;5015023;28;20053;-31
2021/11/14 09:40:52;;;;;;;0.30;0.30;;;19.10;66.80;;;;;;5015880;28;20071;-30
2021/11/14 09:43:19;;;;;;;0.50;0.50;;;19.10;66.70;;;;;;5030946;28;20300;-36
2021/11/14 09:45:45;;;;;;;0.80;0.40;;;19.10;67.00;;;;;;5009918;28;20045;-35
2021/11/14 09:48:11;;;;;;;0.40;0.40;;;19.10;67.00;;;;;;5009197;28;20099;-32
2021/11/14 09:50:37;;;;;;;0.60;0.40;;;19.00;67.10;;;;;;5019724;28;20117;-33
2021/11/14 09:53:02;;;;;;;0.90;0.40;;;19.10;67.30;;;;;;5019241;28;20308;-28
2021/11/14 09:55:34;;;;;;;0.38;0.38;;;19.10;67.30;;;;;;5017625;28;20045;-32
2021/11/14 09:58:00;;;;;;;1.10;0.50;;;19.00;67.40;;;;;;5019312;28;22097;-30
2021/11/14 10:00:27;;;;;;;1.67;0.65;;;19.00;67.50;;;;;;5016656;28;20158;-33
2021/11/14 10:02:53;;;;;;;0.57;0.50;;;19.00;67.40;;;;;;5016179;28;20077;-29
2021/11/14 10:05:19;;;;;;;0.60;0.50;;;19.10;67.20;;;;;;5018204;28;21044;-33
2021/11/14 10:07:58;;;;;;;0.60;0.40;;;19.10;67.10;;;;;;5018598;28;20041;-37
2021/11/14 10:10:29;;;;;;;0.57;0.50;;;19.10;67.00;;;;;;5019059;28;20192;-29
2021/11/14 10:12:55;;;;;;;1.08;0.65;;;19.20;65.70;;;;;;5018822;28;20061;-27
2021/11/14 10:15:22;;;;;;;1.42;0.50;;;19.10;65.50;;;;;;5017674;28;20068;-31
2021/11/14 10:17:49;;;;;;;1.42;0.80;;;19.10;66.60;;;;;;5017894;28;20153;-35
2021/11/14 10:20:17;;;;;;;1.50;0.45;;;19.20;67.00;;;;;;5016762;28;20061;-30
2021/11/14 10:22:45;;;;;;;2.40;0.75;;;19.20;67.00;;;;;;5017783;28;20877;-36
2021/11/14 10:25:11;;;;;;;1.05;0.70;;;19.20;67.30;;;;;;5017354;28;20049;-32
2021/11/14 10:27:36;;;;;;;1.40;0.80;;;19.20;67.80;;;;;;5013714;28;20103;-38
2021/11/14 10:30:04;;;;;;;1.73;1.17;;;19.30;66.40;;;;;;5011913;28;20061;-38
2021/11/14 10:32:30;;;;;;;1.80;1.02;;;19.20;65.80;;;;;;5018416;28;20061;-37
2021/11/14 10:34:59;;;;;;;3.72;1.10;;;19.20;66.90;;;;;;5018271;28;20045;-38
2021/11/14 10:37:25;;;;;;;2.47;1.60;;;19.30;66.90;;;;;;5019265;28;20053;-33
2021/11/14 10:39:55;;;;;;;2.22;1.15;;;19.30;65.90;;;;;;5017813;28;20080;-38
2021/11/14 10:42:21;;;;;;;2.15;1.20;;;19.20;66.50;;;;;;5018590;28;20954;-36
2021/11/14 10:44:51;;;;;;;2.13;1.15;;;19.30;66.20;;;;;;5017772;28;20085;-33
2021/11/14 10:47:23;;;;;;;3.22;1.42;;;19.30;66.10;;;;;;5024429;28;20041;-29
2021/11/14 10:50:06;;;;;;;3.13;1.52;;;19.30;66.20;;;;;;5028068;28;20077;-29
2021/11/14 10:52:33;;;;;;;1.23;1.13;;;19.30;65.00;;;;;;5024540;28;20159;-37
2021/11/14 10:55:09;;;;;;;2.45;1.35;;;19.20;65.20;;;;;;5019157;28;20044;-36
2021/11/14 10:57:36;;;;;;;4.43;1.60;;;19.30;65.40;;;;;;5014857;28;20053;-29
2021/11/14 11:00:05;;;;;;;2.80;1.30;;;19.20;65.50;;;;;;5024254;28;20042;-33
2021/11/14 11:02:30;;;;;;;1.42;1.00;;;19.20;64.70;;;;;;5030408;28;20057;-29
2021/11/14 11:04:56;;;;;;;1.98;1.15;;;19.20;63.90;;;;;;5020180;28;20045;-30
2021/11/14 11:07:25;;;;;;;2.97;0.98;;;19.20;64.30;;;;;;5018992;28;20546;-27
2021/11/14 11:09:55;;;;;;;2.28;1.38;;;19.20;64.50;;;;;;5032293;28;20068;-28
2021/11/14 11:12:25;;;;;;;4.40;1.35;;;19.20;64.30;;;;;;5033218;28;20057;-30
2021/11/14 11:14:59;;;;;;;2.08;1.15;;;19.20;64.00;;;;;;5035359;28;20054;-27
2021/11/14 11:17:29;;;;;;;2.40;1.20;;;19.20;64.20;;;;;;5049296;28;20068;-29
2021/11/14 11:19:55;;;;;;;3.10;1.05;;;19.20;63.70;;;;;;5018500;28;20049;-33
2021/11/14 11:22:23;;;;;;;2.67;1.35;;;19.10;62.90;;;;;;5015154;28;20050;-32
2021/11/14 11:24:51;;;;;;;2.45;1.27;;;19.20;65.70;;;;;;5032234;28;20110;-28
2021/11/14 11:27:17;;;;;;;1.90;0.90;;;19.20;63.60;;;;;;5030846;28;20046;-31
2021/11/14 11:29:43;;;;;;;1.08;0.70;;;19.10;64.40;;;;;;5030134;28;20087;-29
2021/11/14 11:32:09;;;;;;;2.17;0.93;;;19.10;62.90;;;;;;5030090;28;20049;-30
2021/11/14 11:34:35;;;;;;;2.38;0.82;;;19.10;64.20;;;;;;5030172;28;20053;-28
2021/11/14 11:37:01;;;;;;;1.23;0.95;;;19.10;63.00;;;;;;5032417;28;20520;-26
2021/11/14 11:39:27;;;;;;;1.10;0.70;;;19.10;64.50;;;;;;5049563;28;20114;-29
2021/11/14 11:41:54;;;;;;;1.02;0.95;;;19.00;63.60;;;;;;5037891;28;20063;-32
2021/11/14 11:44:19;;;;;;;1.52;0.82;;;19.10;64.00;;;;;;5021739;28;20058;-31
2021/11/14 11:46:50;;;;;;;1.70;1.00;;;19.10;63.30;;;;;;5051054;28;20100;-26
2021/11/14 11:49:20;;;;;;;0.90;0.73;;;19.00;63.60;;;;;;5041237;28;20045;-26
2021/11/14 11:52:12;;;;;;;1.55;0.80;;;19.00;64.40;;;;;;5031566;28;20072;-30
2021/11/14 11:54:38;;;;;;;3.65;0.80;;;19.10;61.50;;;;;;5030976;28;20049;-30
2021/11/14 11:57:09;;;;;;;0.98;0.70;;;19.10;62.60;;;;;;5010035;28;20060;-30
2021/11/14 11:59:52;;;;;;;1.02;0.68;;;19.10;63.10;;;;;;5036146;28;20691;-29
2021/11/14 12:02:23;;;;;;;1.50;0.85;;;19.00;61.90;;;;;;5033997;28;20071;-32
2021/11/14 12:04:50;;;;;;;1.45;0.95;;;19.00;62.60;;;;;;5026201;28;20611;-33
2021/11/14 12:07:20;;;;;;;3.28;0.90;;;19.00;63.40;;;;;;5023834;28;20103;-35
2021/11/14 12:09:54;;;;;;;1.60;0.98;;;19.00;64.00;;;;;;5032643;28;20083;-33
2021/11/14 12:12:25;;;;;;;3.92;1.00;;;19.00;62.60;;;;;;5028143;28;20056;-29
2021/11/14 12:15:06;;;;;;;0.95;0.82;;;19.00;63.20;;;;;;5032562;28;20045;-33
2021/11/14 12:17:32;;;;;;;4.85;1.20;;;19.00;62.70;;;;;;5019900;28;20088;-29
2021/11/14 12:20:06;;;;;;;3.38;1.15;;;19.00;64.30;;;;;;5025022;28;20058;-28
2021/11/14 12:22:49;;;;;;;4.25;1.20;;;18.90;61.80;;;;;;5017023;28;20041;-27
2021/11/14 12:25:36;;;;;;;2.13;1.23;;;18.90;63.60;;;;;;5009961;28;20105;-28
2021/11/14 12:28:19;;;;;;;3.47;1.17;;;18.90;62.80;;;;;;5014855;28;20136;-32
2021/11/14 12:31:22;;;;;;;1.63;1.00;;;18.80;63.20;;;;;;5014373;28;20529;-32
2021/11/14 12:33:48;;;;;;;1.75;0.93;;;18.90;62.50;;;;;;5018832;28;20108;-27
2021/11/14 12:36:39;;;;;;;1.35;1.08;;;18.90;63.60;;;;;;5027767;28;20076;-30
2021/11/14 12:39:16;;;;;;;4.65;1.30;;;18.90;63.30;;;;;;5017870;28;20056;-29
2021/11/14 12:42:01;;;;;;;1.33;1.23;;;18.90;62.40;;;;;;5031498;28;20061;-35
2021/11/14 12:44:32;;;;;;;2.85;1.10;;;19.00;63.00;;;;;;5014640;28;20078;-28
2021/11/14 12:46:58;;;;;;;1.88;1.30;;;19.00;62.80;;;;;;5008381;28;20052;-29
2021/11/14 12:49:34;;;;;;;3.05;0.80;;;19.00;62.30;;;;;;5012486;28;20065;-27